Time;durP1;ratioP1;P1;durP2;ratioP2;P2;SDS_P1;SDS_P2;PMS_P1;PMS_P2;Temp;Humidity;BMP_temperature;BMP_pressure;BME280_temperature;BME280_humidity;BME280_pressure;Samples;Min_cycle;Max_cycle;Signal;HPM_P1;HPM_P2
2023/01/27 07:28:34;;;;;;;;;8.25;6.00;;;;;;;;5102863;27;13404;-66
2023/01/27 07:31:00;;;;;;;;;5.75;5.75;;;;;;;;5102237;28;14132;-68
2023/01/27 07:33:25;;;;;;;;;10.50;7.00;;;;;;;;5101333;28;14369;-68
2023/01/27 07:35:50;;;;;;;;;6.33;6.33;;;;;;;;5102094;28;13473;-68
2023/01/27 14:56:58;;;;;;;;;9.60;7.40;;;;;;;;5010854;27;13479;-67
2023/01/27 14:59:42;;;;;;;;;8.00;8.00;;;;;;;;4968906;28;13539;-67
2023/01/27 15:02:07;;;;;;;;;16.60;9.60;;;;;;;;4972041;28;13733;-66
2023/01/27 15:04:32;;;;;;;;;11.00;10.33;;;;;;;;4982623;28;13688;-65
2023/01/27 15:07:04;;;;;;;;;8.00;7.00;;;;;;;;4984565;28;13575;-61
2023/01/27 15:09:48;;;;;;;;;9.25;8.75;;;;;;;;4982106;28;13583;-63
2023/01/27 15:12:19;;;;;;;;;9.50;8.25;;;;;;;;4984815;28;13450;-68
2023/01/27 15:14:56;;;;;;;;;25.75;21.75;;;;;;;;4979190;28;13586;-66
2023/01/27 15:17:40;;;;;;;;;13.00;10.00;;;;;;;;4982289;28;14446;-68
2023/01/27 15:20:11;;;;;;;;;12.50;8.50;;;;;;;;4982772;28;13509;-67
2023/01/27 15:22:42;;;;;;;;;9.25;8.25;;;;;;;;4982587;28;13542;-66
2023/01/27 15:25:28;;;;;;;;;6.00;6.00;;;;;;;;4982389;28;13528;-64
2023/01/27 15:27:54;;;;;;;;;9.40;6.00;;;;;;;;4982193;28;13578;-66
2023/01/27 15:30:30;;;;;;;;;9.00;8.00;;;;;;;;4982426;28;13570;-64
2023/01/27 15:32:55;;;;;;;;;8.80;7.60;;;;;;;;4982846;28;13517;-65
2023/01/27 15:35:21;;;;;;;;;4.75;4.75;;;;;;;;4984045;28;13550;-65
2023/01/27 15:38:06;;;;;;;;;9.00;7.50;;;;;;;;4982229;28;13520;-65
2023/01/27 15:40:51;;;;;;;;;8.00;8.00;;;;;;;;4980714;28;13526;-65
2023/01/27 15:43:18;;;;;;;;;15.75;13.00;;;;;;;;4980545;28;14295;-67
2023/01/27 15:45:45;;;;;;;;;10.40;10.00;;;;;;;;4980867;28;13707;-68
2023/01/27 15:48:32;;;;;;;;;10.25;8.75;;;;;;;;4982422;28;13698;-66
2023/01/27 15:51:06;;;;;;;;;6.00;6.00;;;;;;;;4980886;28;13918;-67
2023/01/27 15:53:31;;;;;;;;;10.75;9.00;;;;;;;;4974661;28;13540;-68
2023/01/27 15:55:58;;;;;;;;;8.00;8.00;;;;;;;;4982137;28;13624;-68
2023/01/27 15:58:26;;;;;;;;;7.75;5.25;;;;;;;;4980999;28;13487;-68
2023/01/27 16:00:54;;;;;;;;;9.00;6.00;;;;;;;;4982394;28;13620;-66
2023/01/27 16:03:22;;;;;;;;;9.50;7.00;;;;;;;;4982019;28;13572;-66
2023/01/27 16:05:51;;;;;;;;;9.00;9.00;;;;;;;;4984800;28;13493;-65
2023/01/27 16:08:17;;;;;;;;;8.40;8.40;;;;;;;;4986313;28;13501;-66
2023/01/27 16:10:44;;;;;;;;;11.40;9.60;;;;;;;;4976704;28;13489;-67
2023/01/27 16:13:28;;;;;;;;;14.25;12.00;;;;;;;;4968539;28;14358;-67
2023/01/27 16:16:13;;;;;;;;;8.80;8.80;;;;;;;;4966043;28;13594;-65
2023/01/27 16:19:03;;;;;;;;;9.00;8.40;;;;;;;;4942770;28;13582;-66
2023/01/27 16:21:48;;;;;;;;;11.40;10.20;;;;;;;;4964634;28;13602;-67
2023/01/27 16:24:19;;;;;;;;;9.00;7.20;;;;;;;;4965516;28;13576;-71
2023/01/27 16:26:50;;;;;;;;;13.20;11.40;;;;;;;;4968305;28;13506;-66
2023/01/27 16:29:15;;;;;;;;;9.00;9.00;;;;;;;;4965930;28;13542;-67
2023/01/27 16:31:41;;;;;;;;;13.00;10.00;;;;;;;;4968201;28;13472;-72
2023/01/27 16:34:14;;;;;;;;;8.25;8.25;;;;;;;;4968062;28;13855;-68
2023/01/27 16:36:39;;;;;;;;;12.50;10.25;;;;;;;;4967968;28;13644;-66
2023/01/27 16:39:17;;;;;;;;;10.50;10.00;;;;;;;;4966218;28;14484;-66
2023/01/27 16:41:50;;;;;;;;;7.50;7.50;;;;;;;;4968027;28;13658;-66
2023/01/27 16:44:21;;;;;;;;;13.25;8.50;;;;;;;;4965931;28;13513;-66
2023/01/27 16:46:58;;;;;;;;;8.75;8.75;;;;;;;;4967982;28;13618;-66
2023/01/27 16:49:27;;;;;;;;;10.75;9.25;;;;;;;;4966419;28;13532;-67
2023/01/27 16:51:57;;;;;;;;;15.00;11.25;;;;;;;;4961924;28;13538;-67
2023/01/27 16:54:30;;;;;;;;;10.00;10.00;;;;;;;;4966188;28;13586;-66
2023/01/27 16:56:56;;;;;;;;;14.60;10.00;;;;;;;;4964079;28;14259;-65
2023/01/27 16:59:25;;;;;;;;;10.40;10.40;;;;;;;;4961128;28;14277;-68
2023/01/27 17:01:52;;;;;;;;;12.00;11.75;;;;;;;;4959095;28;13523;-65
2023/01/27 17:04:23;;;;;;;;;10.00;9.00;;;;;;;;4967123;28;13545;-65
2023/01/27 17:06:50;;;;;;;;;10.67;9.00;;;;;;;;4968102;28;13649;-67
2023/01/27 17:09:23;;;;;;;;;6.50;6.50;;;;;;;;4964447;28;13432;-70
2023/01/27 17:11:49;;;;;;;;;9.80;9.00;;;;;;;;4965037;28;13525;-70
2023/01/27 17:14:15;;;;;;;;;10.25;8.75;;;;;;;;4967558;28;13515;-68
2023/01/27 17:16:42;;;;;;;;;8.80;8.80;;;;;;;;4967633;28;13530;-66
2023/01/27 17:19:10;;;;;;;;;10.50;8.00;;;;;;;;4966135;28;13545;-65
2023/01/27 17:21:43;;;;;;;;;9.00;9.00;;;;;;;;4967372;28;13533;-66
2023/01/27 17:24:20;;;;;;;;;8.40;8.00;;;;;;;;4964763;28;14414;-66
2023/01/27 17:26:47;;;;;;;;;8.00;8.00;;;;;;;;4967225;28;13641;-66
2023/01/27 17:29:16;;;;;;;;;12.00;12.00;;;;;;;;4967639;28;14282;-66
2023/01/27 17:31:41;;;;;;;;;15.75;12.00;;;;;;;;4966385;28;13547;-67
2023/01/27 17:34:13;;;;;;;;;9.00;8.75;;;;;;;;4967943;28;14469;-66
2023/01/27 17:36:58;;;;;;;;;13.80;10.40;;;;;;;;4967385;28;13569;-66
2023/01/27 17:39:25;;;;;;;;;12.00;11.75;;;;;;;;4967540;28;13578;-65
2023/01/27 17:41:53;;;;;;;;;10.33;9.00;;;;;;;;4967316;28;13671;-67
2023/01/27 17:44:19;;;;;;;;;12.80;8.80;;;;;;;;4967390;28;13718;-70
2023/01/27 17:46:44;;;;;;;;;9.00;8.00;;;;;;;;4967749;28;13555;-67
2023/01/27 17:49:09;;;;;;;;;8.75;8.75;;;;;;;;4967217;28;13580;-66
2023/01/27 17:51:36;;;;;;;;;13.50;9.50;;;;;;;;4966995;28;14176;-68
2023/01/27 17:54:06;;;;;;;;;12.00;11.00;;;;;;;;4967338;28;14449;-67
2023/01/27 17:56:32;;;;;;;;;9.50;7.50;;;;;;;;4966733;28;13583;-65
2023/01/27 17:59:03;;;;;;;;;11.20;9.00;;;;;;;;4966653;28;13513;-65
2023/01/27 18:01:29;;;;;;;;;12.50;10.00;;;;;;;;4965544;28;13519;-66
2023/01/27 18:03:55;;;;;;;;;9.25;9.00;;;;;;;;4967155;28;14483;-66
2023/01/27 18:06:24;;;;;;;;;12.75;11.00;;;;;;;;4967031;28;13538;-66
2023/01/27 18:08:54;;;;;;;;;12.00;9.00;;;;;;;;4966935;28;14327;-66
2023/01/27 18:11:21;;;;;;;;;8.40;8.40;;;;;;;;4966920;28;13757;-67
2023/01/27 18:13:50;;;;;;;;;7.60;7.60;;;;;;;;4967254;28;13689;-66
2023/01/27 18:16:18;;;;;;;;;8.25;8.25;;;;;;;;4966706;28;13514;-66
2023/01/27 18:18:43;;;;;;;;;14.60;11.00;;;;;;;;4966935;28;14438;-67
2023/01/27 18:21:09;;;;;;;;;10.50;9.00;;;;;;;;4966789;28;13668;-65
2023/01/27 18:23:54;;;;;;;;;6.00;6.00;;;;;;;;4966617;28;13530;-67
2023/01/27 18:26:27;;;;;;;;;14.20;9.80;;;;;;;;4966732;28;13520;-67
2023/01/27 18:29:00;;;;;;;;;16.00;15.33;;;;;;;;4948608;28;13606;-67
2023/01/27 18:31:28;;;;;;;;;15.00;13.00;;;;;;;;4963339;28;13620;-67
2023/01/27 18:34:01;;;;;;;;;12.20;11.80;;;;;;;;4966530;28;13730;-69
2023/01/27 18:36:33;;;;;;;;;13.60;11.80;;;;;;;;4965741;28;13697;-67
2023/01/27 18:38:59;;;;;;;;;10.00;10.00;;;;;;;;4966750;28;13680;-71
2023/01/27 18:41:29;;;;;;;;;12.00;11.75;;;;;;;;4966000;28;13802;-71
2023/01/27 18:43:54;;;;;;;;;11.00;11.00;;;;;;;;4965306;28;13671;-68
2023/01/27 18:46:20;;;;;;;;;18.75;13.25;;;;;;;;4966053;28;13655;-69
2023/01/27 18:48:45;;;;;;;;;18.50;15.50;;;;;;;;4965105;28;13697;-70
2023/01/27 18:51:12;;;;;;;;;14.33;9.00;;;;;;;;4964017;28;13577;-66
2023/01/27 18:53:37;;;;;;;;;15.00;12.75;;;;;;;;4964040;28;13616;-67
2023/01/27 18:56:03;;;;;;;;;11.67;11.33;;;;;;;;4967518;28;13627;-70
2023/01/27 18:58:28;;;;;;;;;9.40;9.00;;;;;;;;4963379;28;13559;-68
2023/01/27 19:00:56;;;;;;;;;12.75;11.00;;;;;;;;4972705;28;13649;-68
2023/01/27 19:03:23;;;;;;;;;12.00;9.00;;;;;;;;4967476;28;13658;-67
2023/01/27 19:05:48;;;;;;;;;13.00;8.60;;;;;;;;4974040;28;13539;-68
2023/01/27 19:08:14;;;;;;;;;12.40;12.40;;;;;;;;4973190;28;13550;-68
2023/01/27 19:10:39;;;;;;;;;14.60;12.40;;;;;;;;4971436;28;13663;-68
2023/01/27 19:13:05;;;;;;;;;12.00;11.00;;;;;;;;4973665;28;13640;-69
2023/01/27 19:15:32;;;;;;;;;15.75;15.00;;;;;;;;4975548;28;14458;-68
2023/01/27 19:17:58;;;;;;;;;13.75;12.25;;;;;;;;4973443;28;13588;-69
2023/01/27 19:20:25;;;;;;;;;13.75;12.25;;;;;;;;4975643;28;14530;-73
2023/01/27 19:22:51;;;;;;;;;14.50;10.50;;;;;;;;4972342;28;14402;-69
2023/01/27 19:25:16;;;;;;;;;11.75;10.50;;;;;;;;4972329;28;13525;-72
2023/01/27 19:27:43;;;;;;;;;9.00;8.67;;;;;;;;4969880;28;13556;-69
2023/01/27 19:30:31;;;;;;;;;12.00;11.50;;;;;;;;4977953;28;14328;-70
2023/01/27 19:32:56;;;;;;;;;15.60;13.20;;;;;;;;4964653;28;13681;-70
2023/01/27 19:35:22;;;;;;;;;15.50;11.75;;;;;;;;4965106;28;13641;-67
2023/01/27 19:37:48;;;;;;;;;25.33;18.67;;;;;;;;4963016;28;13562;-67
2023/01/27 19:40:21;;;;;;;;;16.00;15.50;;;;;;;;4964977;28;13608;-68
2023/01/27 19:42:47;;;;;;;;;16.75;12.50;;;;;;;;4966807;28;13621;-68
2023/01/27 19:45:13;;;;;;;;;12.00;11.00;;;;;;;;4949706;28;13581;-69
2023/01/27 19:47:39;;;;;;;;;12.40;8.20;;;;;;;;4965530;28;13529;-68
2023/01/27 19:50:04;;;;;;;;;16.67;12.00;;;;;;;;4967701;28;13546;-67
2023/01/27 19:52:30;;;;;;;;;11.50;8.00;;;;;;;;4969198;28;13593;-66
2023/01/27 19:54:55;;;;;;;;;12.67;11.67;;;;;;;;4967870;28;14363;-68
2023/01/27 19:57:21;;;;;;;;;11.50;10.50;;;;;;;;4967626;28;13719;-68
2023/01/27 19:59:46;;;;;;;;;10.75;8.25;;;;;;;;4968992;28;13508;-68
2023/01/27 20:02:12;;;;;;;;;8.67;8.67;;;;;;;;4964633;28;13587;-68
2023/01/27 20:04:39;;;;;;;;;9.00;9.00;;;;;;;;4969331;28;14319;-68
2023/01/27 20:07:11;;;;;;;;;10.00;9.50;;;;;;;;4967456;28;13563;-67
2023/01/27 20:09:36;;;;;;;;;12.00;10.00;;;;;;;;4967674;28;14294;-68
2023/01/27 20:12:01;;;;;;;;;12.00;9.00;;;;;;;;4972964;28;13577;-68
2023/01/27 20:14:27;;;;;;;;;11.75;9.50;;;;;;;;4969078;28;14481;-69
2023/01/27 20:16:56;;;;;;;;;12.00;9.00;;;;;;;;4968821;28;13617;-70
2023/01/27 20:19:21;;;;;;;;;13.60;11.00;;;;;;;;4965442;28;13576;-69
2023/01/27 20:21:48;;;;;;;;;12.00;12.00;;;;;;;;4967094;28;13611;-68
2023/01/27 20:24:14;;;;;;;;;10.00;10.00;;;;;;;;4967371;28;13554;-69
2023/01/27 20:26:40;;;;;;;;;13.40;11.80;;;;;;;;4961540;28;13608;-70
2023/01/27 20:29:05;;;;;;;;;13.00;12.00;;;;;;;;4968266;28;13607;-65
2023/01/27 20:31:30;;;;;;;;;13.00;11.33;;;;;;;;4967167;28;13690;-66
2023/01/27 20:33:57;;;;;;;;;10.67;9.00;;;;;;;;4967985;28;13538;-67
2023/01/27 20:36:22;;;;;;;;;9.00;9.00;;;;;;;;4967885;28;13642;-67
2023/01/27 20:38:48;;;;;;;;;15.67;12.67;;;;;;;;4966458;28;14885;-66
2023/01/27 20:41:14;;;;;;;;;11.33;9.67;;;;;;;;4967037;28;13415;-67
2023/01/27 20:43:39;;;;;;;;;13.00;11.25;;;;;;;;4966703;28;14051;-68
2023/01/27 20:46:06;;;;;;;;;12.25;9.00;;;;;;;;4966932;28;13630;-67
2023/01/27 20:48:32;;;;;;;;;13.00;12.00;;;;;;;;4967172;28;13542;-67
2023/01/27 20:50:59;;;;;;;;;15.00;12.00;;;;;;;;4967249;28;13601;-68
2023/01/27 20:53:24;;;;;;;;;11.40;10.60;;;;;;;;4967908;28;13647;-67
2023/01/27 20:55:49;;;;;;;;;12.50;8.00;;;;;;;;4968346;28;13715;-67
2023/01/27 20:58:14;;;;;;;;;12.00;9.00;;;;;;;;4968123;28;13697;-68
2023/01/27 21:00:40;;;;;;;;;9.75;9.75;;;;;;;;4968662;28;13569;-67
2023/01/27 21:03:05;;;;;;;;;11.25;8.75;;;;;;;;4972939;28;13510;-67
2023/01/27 21:05:30;;;;;;;;;17.00;14.33;;;;;;;;4974916;28;13519;-67
2023/01/27 21:07:56;;;;;;;;;13.50;11.00;;;;;;;;4966842;28;13700;-67
2023/01/27 21:10:22;;;;;;;;;10.25;10.25;;;;;;;;4968319;28;13564;-69
2023/01/27 21:12:47;;;;;;;;;10.20;8.20;;;;;;;;4967967;28;13614;-69
2023/01/27 21:15:12;;;;;;;;;12.50;9.00;;;;;;;;4966936;28;13528;-68
2023/01/27 21:17:37;;;;;;;;;15.00;10.50;;;;;;;;4950678;28;13558;-68
2023/01/27 21:20:03;;;;;;;;;14.50;11.75;;;;;;;;4966788;28;13557;-66
2023/01/27 21:22:29;;;;;;;;;15.75;12.00;;;;;;;;4968094;28;13566;-66
2023/01/27 21:24:54;;;;;;;;;16.00;10.50;;;;;;;;4968237;28;13596;-66
2023/01/27 21:27:19;;;;;;;;;13.00;11.75;;;;;;;;4967399;28;13703;-66
2023/01/27 21:29:44;;;;;;;;;9.67;9.00;;;;;;;;4968096;28;13665;-66
2023/01/27 21:32:10;;;;;;;;;14.50;12.75;;;;;;;;4967812;28;14292;-69
2023/01/27 21:34:35;;;;;;;;;14.33;8.67;;;;;;;;4964159;28;13613;-68
2023/01/27 21:37:00;;;;;;;;;10.50;10.50;;;;;;;;4956275;28;13618;-67
2023/01/27 21:39:25;;;;;;;;;12.75;9.75;;;;;;;;4948751;28;13739;-67
2023/01/27 21:47:04;;;;;;;;;7.00;7.00;;;;;;;;4959798;28;13670;-67
2023/01/27 21:49:32;;;;;;;;;13.00;9.00;;;;;;;;4948173;28;13789;-67
2023/01/27 21:51:58;;;;;;;;;17.40;11.80;;;;;;;;4958228;28;13605;-67
2023/01/27 21:54:23;;;;;;;;;9.67;9.67;;;;;;;;4981927;28;13773;-66
2023/01/27 21:56:48;;;;;;;;;11.33;8.67;;;;;;;;4966873;28;13519;-67
2023/01/27 21:59:14;;;;;;;;;10.75;9.50;;;;;;;;4965862;28;14262;-67
2023/01/27 22:01:39;;;;;;;;;13.67;9.00;;;;;;;;4967125;28;14424;-67
2023/01/27 22:04:05;;;;;;;;;10.33;9.33;;;;;;;;4966602;28;13505;-67
2023/01/27 22:06:31;;;;;;;;;10.20;10.20;;;;;;;;4966871;28;14206;-66
2023/01/27 22:08:59;;;;;;;;;16.00;9.00;;;;;;;;4966783;28;13549;-67
2023/01/27 22:11:24;;;;;;;;;13.00;11.80;;;;;;;;4966915;28;13551;-68
2023/01/27 22:13:49;;;;;;;;;11.00;11.00;;;;;;;;4966804;28;13637;-67
2023/01/27 22:16:15;;;;;;;;;11.00;11.00;;;;;;;;4966598;28;13766;-67
2023/01/27 22:18:41;;;;;;;;;9.50;9.50;;;;;;;;4966787;28;13566;-67
2023/01/27 22:21:06;;;;;;;;;11.00;8.50;;;;;;;;4965234;28;13626;-67
2023/01/27 22:23:32;;;;;;;;;13.00;8.67;;;;;;;;4966444;28;13601;-67
2023/01/27 22:25:57;;;;;;;;;14.67;12.67;;;;;;;;4966563;28;13505;-66
2023/01/27 22:28:24;;;;;;;;;11.00;9.25;;;;;;;;4964992;28;14384;-66
2023/01/27 22:30:49;;;;;;;;;11.60;10.60;;;;;;;;4965263;28;13597;-66
2023/01/27 22:33:15;;;;;;;;;11.25;8.00;;;;;;;;4965242;28;13515;-66
2023/01/27 22:35:40;;;;;;;;;12.00;11.00;;;;;;;;4966232;28;13471;-67
2023/01/27 22:38:07;;;;;;;;;8.00;8.00;;;;;;;;4966361;28;13620;-67
2023/01/27 22:40:32;;;;;;;;;12.00;11.00;;;;;;;;4965103;28;14359;-67
2023/01/27 22:42:57;;;;;;;;;9.00;9.00;;;;;;;;4966688;28;13533;-67
2023/01/27 22:45:24;;;;;;;;;10.33;10.33;;;;;;;;4965181;28;13591;-66
2023/01/27 22:47:49;;;;;;;;;12.00;8.20;;;;;;;;4966410;28;13530;-67
2023/01/27 22:50:14;;;;;;;;;7.75;7.75;;;;;;;;4965044;28;13557;-67
2023/01/27 22:52:40;;;;;;;;;9.25;8.25;;;;;;;;4965272;28;14279;-67
2023/01/27 22:55:06;;;;;;;;;11.67;8.00;;;;;;;;4965582;28;13632;-67
2023/01/27 22:57:31;;;;;;;;;9.00;9.00;;;;;;;;4964645;28;13525;-67
2023/01/27 22:59:57;;;;;;;;;8.50;8.00;;;;;;;;4966294;28;13491;-67
2023/01/27 23:02:25;;;;;;;;;8.75;8.75;;;;;;;;4965915;28;13528;-67
2023/01/27 23:04:50;;;;;;;;;8.25;7.25;;;;;;;;4964138;28;13695;-67
2023/01/27 23:07:16;;;;;;;;;9.00;9.00;;;;;;;;4960456;28;14501;-67
2023/01/27 23:09:41;;;;;;;;;12.25;9.50;;;;;;;;4965981;28;13523;-67
2023/01/27 23:12:06;;;;;;;;;8.67;8.00;;;;;;;;4965652;28;13683;-66
2023/01/27 23:14:32;;;;;;;;;12.00;11.00;;;;;;;;4963930;28;13561;-67
2023/01/27 23:16:57;;;;;;;;;12.00;11.00;;;;;;;;4981395;28;13621;-66
2023/01/27 23:19:23;;;;;;;;;12.75;11.25;;;;;;;;4983735;28;14627;-66
2023/01/27 23:21:48;;;;;;;;;13.50;12.75;;;;;;;;4968946;28;14479;-67
2023/01/27 23:24:14;;;;;;;;;11.00;9.25;;;;;;;;4969093;28;13708;-66
2023/01/27 23:26:39;;;;;;;;;10.50;10.50;;;;;;;;4968844;28;13543;-67
2023/01/27 23:29:05;;;;;;;;;11.00;7.75;;;;;;;;4968172;28;13601;-66
2023/01/27 23:31:30;;;;;;;;;8.00;8.00;;;;;;;;4969758;28;13558;-67
2023/01/27 23:33:55;;;;;;;;;14.00;9.00;;;;;;;;4969457;28;13752;-67
2023/01/27 23:36:22;;;;;;;;;6.67;6.67;;;;;;;;4969674;28;13558;-68
2023/01/27 23:38:47;;;;;;;;;8.80;8.00;;;;;;;;4970154;28;13794;-68
2023/01/27 23:41:17;;;;;;;;;11.00;10.50;;;;;;;;4969933;28;13578;-67
2023/01/27 23:43:43;;;;;;;;;7.60;7.60;;;;;;;;4970138;28;13678;-67
2023/01/27 23:46:08;;;;;;;;;9.50;9.50;;;;;;;;4969911;28;13606;-67
2023/01/27 23:48:34;;;;;;;;;11.00;8.50;;;;;;;;4969465;28;14544;-66
2023/01/27 23:51:04;;;;;;;;;10.75;8.25;;;;;;;;4969198;28;13638;-67
2023/01/27 23:53:29;;;;;;;;;9.00;8.00;;;;;;;;4969606;28;13528;-67
2023/01/27 23:55:55;;;;;;;;;11.75;8.50;;;;;;;;4969461;28;15212;-67
2023/01/27 23:58:21;;;;;;;;;8.50;8.00;;;;;;;;4970563;28;13644;-67
